createdAt,value
2022-08-17T00:01:56.558Z,94379.03
2022-08-17T00:03:59.011Z,94379.44
2022-08-17T00:06:12.165Z,94376.19
2022-08-17T00:08:16.930Z,94380.72
2022-08-17T00:10:18.914Z,94381.69
2022-08-17T00:12:40.764Z,94380.72
2022-08-17T00:14:45.068Z,94386.88
2022-08-17T00:16:52.613Z,94378.00
2022-08-17T00:19:07.767Z,94374.50
2022-08-17T00:21:11.794Z,94378.84
2022-08-17T00:23:17.139Z,94378.97
2022-08-17T00:25:20.201Z,94377.91
2022-08-17T00:27:22.386Z,94385.47
2022-08-17T00:29:24.793Z,94378.56
2022-08-17T00:31:26.737Z,94375.97
2022-08-17T00:33:33.822Z,94375.47
2022-08-17T00:35:35.783Z,94376.28
2022-08-17T00:37:37.768Z,94380.09
2022-08-17T00:39:39.939Z,94375.56
2022-08-17T00:41:42.507Z,94372.00
2022-08-17T00:43:51.615Z,94371.75
2022-08-17T00:45:54.149Z,94380.56
2022-08-17T00:47:56.115Z,94372.06
2022-08-17T00:49:57.981Z,94361.88
2022-08-17T00:52:11.946Z,94368.56
2022-08-17T00:54:32.573Z,94369.88
2022-08-17T00:56:47.208Z,94364.53
2022-08-17T00:58:50.073Z,94362.59
2022-08-17T01:00:52.310Z,94359.94
2022-08-17T01:02:58.197Z,94369.25
2022-08-17T01:05:00.493Z,94368.69
2022-08-17T01:07:04.677Z,94375.34
2022-08-17T01:09:08.753Z,94367.78
2022-08-17T01:11:10.570Z,94371.78
2022-08-17T01:13:13.086Z,94366.34
2022-08-17T01:15:16.112Z,94366.75
2022-08-17T01:17:17.838Z,94373.63
2022-08-17T01:19:25.437Z,94369.25
2022-08-17T01:21:34.107Z,94372.97
2022-08-17T01:23:36.511Z,94377.66
2022-08-17T01:25:38.313Z,94378.88
2022-08-17T01:27:41.528Z,94370.94
2022-08-17T01:29:47.192Z,94371.97
2022-08-17T01:31:52.606Z,94365.41
2022-08-17T01:33:54.585Z,94362.97
2022-08-17T01:35:56.662Z,94363.56
2022-08-17T01:37:58.986Z,94360.44
2022-08-17T01:40:07.680Z,94362.97
2022-08-17T01:42:25.106Z,94361.91
2022-08-17T01:44:27.955Z,94363.78
2022-08-17T01:46:33.617Z,94359.25
2022-08-17T01:48:38.298Z,94364.13
2022-08-17T01:50:42.161Z,94359.63
2022-08-17T01:52:45.596Z,94364.56
2022-08-17T01:54:48.213Z,94362.84
2022-08-17T01:56:51.624Z,94364.06
2022-08-17T01:58:53.490Z,94363.84
2022-08-17T02:01:00.310Z,94363.41
2022-08-17T02:03:03.786Z,94367.50
2022-08-17T02:05:06.857Z,94372.47
2022-08-17T02:07:08.548Z,94375.38
2022-08-17T02:09:16.473Z,94375.50
2022-08-17T02:11:21.047Z,94372.69
2022-08-17T02:13:23.235Z,94374.66
2022-08-17T02:15:25.497Z,94374.78
2022-08-17T02:17:27.359Z,94378.59
2022-08-17T02:19:31.584Z,94385.53
2022-08-17T02:21:34.180Z,94388.88
2022-08-17T02:23:38.529Z,94375.41
2022-08-17T02:25:43.329Z,94374.38
2022-08-17T02:27:45.459Z,94377.25
2022-08-17T02:29:47.491Z,94383.53
2022-08-17T02:31:49.796Z,94378.75
2022-08-17T02:34:00.542Z,94370.19
2022-08-17T02:36:09.367Z,94372.50
2022-08-17T02:38:11.296Z,94372.72
2022-08-17T02:40:13.195Z,94371.69
2022-08-17T02:42:15.421Z,94371.13
2022-08-17T02:44:35.415Z,94378.91
2022-08-17T02:46:39.020Z,94379.13
2022-08-17T02:48:40.918Z,94383.31
2022-08-17T02:50:43.126Z,94382.50
2022-08-17T02:52:48.870Z,94387.50
2022-08-17T02:55:09.667Z,94386.47
2022-08-17T02:57:11.808Z,94388.06
2022-08-17T02:59:14.031Z,94386.69
2022-08-17T03:01:16.004Z,94384.47
2022-08-17T03:03:20.907Z,94385.53
2022-08-17T03:05:25.728Z,94393.78
2022-08-17T03:07:27.495Z,94390.53
2022-08-17T03:09:29.258Z,94391.59
2022-08-17T03:11:31.117Z,94393.19
2022-08-17T03:13:33.284Z,94393.91
2022-08-17T03:15:35.770Z,94399.34
2022-08-17T03:17:42.695Z,94397.25
2022-08-17T03:19:44.921Z,94406.88
2022-08-17T03:21:46.717Z,94404.66
2022-08-17T03:23:57.739Z,94401.31
2022-08-17T03:26:00.460Z,94399.94
2022-08-17T03:28:03.698Z,94396.31
2022-08-17T03:30:07.249Z,94403.63
2022-08-17T03:32:15.193Z,94407.00
2022-08-17T03:34:17.190Z,94403.84
2022-08-17T03:36:18.904Z,94403.19
2022-08-17T03:38:21.366Z,94394.38
2022-08-17T03:40:55.841Z,94400.84
2022-08-17T03:42:46.138Z,94405.38
2022-08-17T03:44:52.787Z,94409.56
2022-08-17T03:47:17.878Z,94406.75
2022-08-17T03:49:38.381Z,94407.69
2022-08-17T03:51:58.557Z,94410.47
2022-08-17T03:54:19.195Z,94410.34
2022-08-17T03:56:39.594Z,94417.75
2022-08-17T03:58:41.316Z,94410.94
2022-08-17T04:00:46.280Z,94417.44
2022-08-17T04:02:48.419Z,94417.28
2022-08-17T04:04:51.184Z,94422.19
2022-08-17T04:06:53.620Z,94418.81
2022-08-17T04:08:55.860Z,94415.91
2022-08-17T04:10:58.254Z,94419.03
2022-08-17T04:13:00.681Z,94425.25
2022-08-17T04:15:02.976Z,94418.88
2022-08-17T04:17:05.610Z,94431.97
2022-08-17T04:19:07.417Z,94424.53
2022-08-17T04:21:09.650Z,94429.66
2022-08-17T04:23:16.870Z,94435.91
2022-08-17T04:25:19.786Z,94439.94
2022-08-17T04:27:21.639Z,94439.81
2022-08-17T04:29:23.687Z,94441.91
2022-08-17T04:31:26.355Z,94439.00
2022-08-17T04:33:29.822Z,94443.53
2022-08-17T04:35:35.217Z,94441.19
2022-08-17T04:37:37.047Z,94442.69
2022-08-17T04:39:38.825Z,94451.00
2022-08-17T04:41:59.372Z,94449.75
2022-08-17T04:44:01.366Z,94455.78
2022-08-17T04:46:08.822Z,94450.06
2022-08-17T04:48:10.568Z,94458.00
2022-08-17T04:50:12.553Z,94454.66
2022-08-17T04:52:37.480Z,94457.53
2022-08-17T04:54:36.319Z,94455.19
2022-08-17T04:56:38.735Z,94460.66
2022-08-17T04:58:40.850Z,94459.44
2022-08-17T05:00:42.654Z,94459.03
2022-08-17T05:02:50.473Z,94464.00
2022-08-17T05:04:52.630Z,94461.97
2022-08-17T05:06:57.236Z,94462.19
2022-08-17T05:09:00.013Z,94455.06
2022-08-17T05:11:02.075Z,94454.66
2022-08-17T05:13:25.167Z,94459.53
2022-08-17T05:15:27.911Z,94454.06
2022-08-17T05:17:29.939Z,94455.75
2022-08-17T05:19:31.867Z,94453.97
2022-08-17T05:21:33.704Z,94462.91
2022-08-17T05:23:42.916Z,94458.00
2022-08-17T05:25:50.856Z,94461.00
2022-08-17T05:27:53.327Z,94458.06
2022-08-17T05:29:55.098Z,94467.31
2022-08-17T05:31:57.089Z,94462.28
2022-08-17T05:33:59.311Z,94461.81
2022-08-17T05:36:02.541Z,94467.72
2022-08-17T05:38:05.488Z,94465.84
2022-08-17T05:40:08.002Z,94458.69
2022-08-17T05:42:10.321Z,94470.06
2022-08-17T05:44:12.699Z,94464.47
2022-08-17T05:46:40.809Z,94466.66
2022-08-17T05:48:47.547Z,94469.56
2022-08-17T05:51:26.589Z,94466.06
2022-08-17T05:53:40.352Z,94458.28
2022-08-17T05:55:57.585Z,94463.91
2022-08-17T05:58:09.205Z,94467.72
2022-08-17T06:00:21.764Z,94466.66
2022-08-17T06:02:48.029Z,94468.50
2022-08-17T06:05:33.725Z,94463.66
2022-08-17T06:07:45.325Z,94468.06
2022-08-17T06:09:58.444Z,94476.06
2022-08-17T06:12:08.074Z,94471.59
2022-08-17T06:14:28.212Z,94468.38
2022-08-17T06:16:34.110Z,94470.31
2022-08-17T06:18:52.014Z,94467.31
2022-08-17T06:21:07.987Z,94459.66
2022-08-17T06:23:21.667Z,94465.06
2022-08-17T06:25:30.758Z,94467.72
2022-08-17T06:27:59.887Z,94470.34
2022-08-17T06:30:16.079Z,94474.84
2022-08-17T06:32:18.438Z,94472.03
2022-08-17T06:34:21.019Z,94469.53
2022-08-17T06:36:47.816Z,94465.34
2022-08-17T06:39:28.635Z,94471.34
2022-08-17T06:41:38.149Z,94461.06
2022-08-17T06:44:49.695Z,94468.56
2022-08-17T06:46:59.336Z,94455.44
2022-08-17T06:49:09.729Z,94462.41
2022-08-17T06:51:23.798Z,94456.97
2022-08-17T06:53:31.815Z,94460.88
2022-08-17T06:55:50.736Z,94455.50
2022-08-17T06:57:58.293Z,94450.78
2022-08-17T07:00:09.108Z,94451.38
2022-08-17T07:02:17.273Z,94450.56
2022-08-17T07:04:21.764Z,94456.22
2022-08-17T07:07:22.170Z,94459.53
2022-08-17T07:09:29.870Z,94460.69
2022-08-17T07:11:57.849Z,94458.03
2022-08-17T07:13:59.605Z,94457.72
2022-08-17T07:16:11.222Z,94461.41
2022-08-17T07:18:13.185Z,94460.00
2022-08-17T07:20:20.193Z,94457.19
2022-08-17T07:23:00.765Z,94451.97
2022-08-17T07:25:09.502Z,94453.34
2022-08-17T07:27:21.669Z,94459.00
2022-08-17T07:29:23.762Z,94456.09
2022-08-17T07:31:26.844Z,94454.63
2022-08-17T07:33:31.243Z,94456.72
2022-08-17T07:35:44.553Z,94460.03
2022-08-17T07:37:54.616Z,94457.09
2022-08-17T07:40:15.314Z,94456.56
2022-08-17T07:42:18.619Z,94449.00
2022-08-17T07:44:20.576Z,94458.75
2022-08-17T07:46:45.687Z,94460.22
2022-08-17T07:48:50.967Z,94451.25
2022-08-17T07:50:53.362Z,94450.13
2022-08-17T07:52:55.746Z,94451.75
2022-08-17T07:54:58.317Z,94454.25
2022-08-17T07:57:09.150Z,94457.81
2022-08-17T07:59:23.508Z,94454.41
2022-08-17T08:01:26.139Z,94452.84
2022-08-17T08:03:43.797Z,94452.00
2022-08-17T08:05:56.485Z,94443.44
2022-08-17T08:08:01.621Z,94453.19
2022-08-17T08:10:42.728Z,94460.59
2022-08-17T08:12:49.073Z,94448.03
2022-08-17T08:14:59.209Z,94455.31
2022-08-17T08:17:04.597Z,94454.44
2022-08-17T08:19:08.427Z,94450.38
2022-08-17T08:21:33.588Z,94440.69
2022-08-17T08:23:51.280Z,94446.38
2022-08-17T08:26:05.469Z,94445.41
2022-08-17T08:28:40.598Z,94439.78
2022-08-17T08:31:02.123Z,94440.31
2022-08-17T08:33:25.543Z,94436.03
2022-08-17T08:35:40.717Z,94433.88
2022-08-17T08:37:46.604Z,94432.28
2022-08-17T08:40:02.725Z,94422.06
2022-08-17T08:42:13.482Z,94435.75
2022-08-17T08:44:59.535Z,94421.50
2022-08-17T08:47:07.695Z,94428.78
2022-08-17T08:49:59.505Z,94431.19
2022-08-17T08:52:02.121Z,94420.22
2022-08-17T08:54:34.561Z,94430.97
2022-08-17T08:57:24.284Z,94417.75
2022-08-17T08:59:35.676Z,94427.41
2022-08-17T09:01:49.858Z,94420.94
2022-08-17T09:04:17.934Z,94422.00
2022-08-17T09:06:33.219Z,94428.69
2022-08-17T09:09:02.877Z,94423.28
2022-08-17T09:11:22.990Z,94429.53
2022-08-17T09:13:41.682Z,94415.72
2022-08-17T09:15:49.609Z,94423.78
2022-08-17T09:20:50.361Z,94417.72
2022-08-17T09:23:07.286Z,94424.00
2022-08-17T09:25:22.682Z,94429.44
2022-08-17T09:27:31.376Z,94430.03
2022-08-17T09:29:37.012Z,94426.00
2022-08-17T09:31:55.962Z,94432.41
2022-08-17T09:33:59.422Z,94429.78
2022-08-17T09:36:10.265Z,94419.50
2022-08-17T09:38:29.204Z,94427.06
2022-08-17T09:40:57.167Z,94419.31
2022-08-17T09:43:06.649Z,94417.09
2022-08-17T09:45:28.628Z,94420.78
2022-08-17T09:47:45.550Z,94419.72
2022-08-17T09:49:50.969Z,94407.53
2022-08-17T09:51:58.345Z,94416.41
2022-08-17T09:54:15.134Z,94423.22
2022-08-17T09:57:18.145Z,94429.53
2022-08-17T09:59:36.527Z,94411.44
2022-08-17T10:01:50.568Z,94408.75
2022-08-17T10:04:12.662Z,94409.13
2022-08-17T10:06:23.606Z,94402.50
2022-08-17T10:08:34.822Z,94415.09
2022-08-17T10:10:56.329Z,94400.56
2022-08-17T10:13:09.799Z,94403.44
2022-08-17T10:15:15.025Z,94403.56
2022-08-17T10:17:25.152Z,94393.69
2022-08-17T10:19:43.914Z,94387.81
2022-08-17T10:22:33.001Z,94390.84
2022-08-17T10:25:22.935Z,94389.81
2022-08-17T10:27:38.326Z,94405.03
2022-08-17T10:29:48.568Z,94394.19
2022-08-17T10:31:59.712Z,94397.47
2022-08-17T10:34:25.613Z,94394.88
2022-08-17T10:36:46.243Z,94396.69
2022-08-17T10:39:04.716Z,94396.34
2022-08-17T10:41:36.878Z,94391.53
2022-08-17T10:44:36.659Z,94399.03
2022-08-17T10:46:31.410Z,94388.81
2022-08-17T10:48:39.074Z,94381.56
2022-08-17T10:50:58.176Z,94390.94
2022-08-17T10:53:00.052Z,94385.06
2022-08-17T10:55:01.751Z,94377.59
2022-08-17T10:57:23.418Z,94383.03
2022-08-17T10:59:58.983Z,94378.28
2022-08-17T11:02:26.231Z,94383.41
2022-08-17T11:04:46.586Z,94381.69
2022-08-17T11:07:25.940Z,94377.09
2022-08-17T11:09:43.489Z,94378.72
2022-08-17T11:12:11.211Z,94377.13
2022-08-17T11:14:24.139Z,94367.97
2022-08-17T11:16:38.142Z,94386.56
2022-08-17T11:19:15.271Z,94393.44
2022-08-17T11:21:50.509Z,94381.06
2022-08-17T11:24:11.788Z,94385.66
2022-08-17T11:26:32.165Z,94379.94
2022-08-17T11:28:45.029Z,94378.59
2022-08-17T11:30:53.839Z,94373.19
2022-08-17T11:32:58.505Z,94368.84
2022-08-17T11:35:22.345Z,94385.59
2022-08-17T11:37:27.888Z,94368.25
2022-08-17T11:40:05.582Z,94363.25
2022-08-17T11:42:26.627Z,94382.00
2022-08-17T11:44:46.769Z,94371.16
2022-08-17T11:47:19.039Z,94366.19
2022-08-17T11:49:54.644Z,94377.28
2022-08-17T11:52:00.334Z,94388.25
2022-08-17T11:54:36.253Z,94389.59
2022-08-17T11:56:47.203Z,94391.09
2022-08-17T11:58:49.435Z,94405.69
2022-08-17T12:00:58.520Z,94406.94
2022-08-17T12:03:22.433Z,94397.38
2022-08-17T12:05:27.672Z,94392.22
2022-08-17T12:07:32.764Z,94400.03
2022-08-17T12:09:39.561Z,94399.81
2022-08-17T12:12:11.123Z,94409.34
2022-08-17T12:14:20.183Z,94400.72
2022-08-17T12:16:24.559Z,94421.84
2022-08-17T12:18:34.019Z,94413.84
2022-08-17T12:20:40.072Z,94403.59
2022-08-17T12:23:14.095Z,94391.13
2022-08-17T12:25:49.484Z,94398.03
2022-08-17T12:28:05.108Z,94403.59
2022-08-17T12:30:14.007Z,94396.34
2022-08-17T12:32:18.401Z,94389.28
2022-08-17T12:34:24.356Z,94399.38
2022-08-17T12:36:28.451Z,94386.66
2022-08-17T12:38:34.681Z,94388.19
2022-08-17T12:40:37.708Z,94390.31
2022-08-17T12:42:40.474Z,94384.38
2022-08-17T12:44:50.440Z,94388.09
2022-08-17T12:47:04.861Z,94384.22
2022-08-17T12:49:29.064Z,94374.28
2022-08-17T12:51:31.907Z,94365.38
2022-08-17T12:53:37.492Z,94373.91
2022-08-17T12:55:40.522Z,94381.50
2022-08-17T12:57:44.838Z,94374.72
2022-08-17T12:59:50.951Z,94383.59
2022-08-17T13:01:53.983Z,94386.81
2022-08-17T13:03:59.833Z,94382.84
2022-08-17T13:06:06.354Z,94376.94
2022-08-17T13:08:27.467Z,94363.94
2022-08-17T13:10:33.310Z,94368.97
2022-08-17T13:12:36.362Z,94369.91
2022-08-17T13:14:38.245Z,94360.56
2022-08-17T13:16:40.324Z,94372.59
2022-08-17T13:18:44.199Z,94372.81
2022-08-17T13:20:53.472Z,94369.81
2022-08-17T13:22:58.123Z,94365.78
2022-08-17T13:25:07.020Z,94364.94
2022-08-17T13:27:12.608Z,94356.09
2022-08-17T13:29:38.991Z,94363.94
2022-08-17T13:31:52.388Z,94346.91
2022-08-17T13:34:31.391Z,94368.47
2022-08-17T13:36:35.092Z,94359.03
2022-08-17T13:38:41.314Z,94355.06
2022-08-17T13:40:50.256Z,94360.75
2022-08-17T13:42:54.190Z,94354.88
2022-08-17T13:44:56.707Z,94355.91
2022-08-17T13:47:00.925Z,94353.41
2022-08-17T13:49:06.732Z,94361.81
2022-08-17T13:51:20.141Z,94354.59
2022-08-17T13:53:28.162Z,94345.13
2022-08-17T13:55:33.134Z,94345.78
2022-08-17T13:57:35.890Z,94340.56
2022-08-17T13:59:55.249Z,94338.03
2022-08-17T14:01:58.224Z,94341.91
2022-08-17T14:04:03.076Z,94332.81
2022-08-17T14:06:05.172Z,94332.84
2022-08-17T14:08:07.348Z,94340.44
2022-08-17T14:10:17.522Z,94331.81
2022-08-17T14:12:25.062Z,94333.59
2022-08-17T14:14:27.247Z,94344.72
2022-08-17T14:16:29.660Z,94339.06
2022-08-17T14:18:43.343Z,94335.53
2022-08-17T14:20:56.702Z,94333.34
2022-08-17T14:22:58.618Z,94336.38
2022-08-17T14:25:01.843Z,94333.44
2022-08-17T14:27:04.381Z,94346.63
2022-08-17T14:29:15.150Z,94349.09
2022-08-17T14:31:17.438Z,94339.41
2022-08-17T14:33:22.617Z,94333.00
2022-08-17T14:35:24.952Z,94340.72
2022-08-17T14:37:28.342Z,94337.00
2022-08-17T14:39:30.149Z,94324.94
2022-08-17T14:41:31.955Z,94332.44
2022-08-17T14:43:34.871Z,94331.34
2022-08-17T14:45:37.202Z,94335.69
2022-08-17T14:47:41.396Z,94327.75
2022-08-17T14:49:43.966Z,94333.41
2022-08-17T14:51:49.638Z,94336.78
2022-08-17T14:53:51.507Z,94327.84
2022-08-17T14:55:53.406Z,94327.56
2022-08-17T14:57:55.457Z,94333.44
2022-08-17T14:59:57.799Z,94327.69
2022-08-17T15:02:00.621Z,94332.38
2022-08-17T15:04:02.380Z,94339.16
2022-08-17T15:06:04.317Z,94333.16
2022-08-17T15:08:11.665Z,94329.81
2022-08-17T15:10:14.844Z,94336.50
2022-08-17T15:12:20.738Z,94338.31
2022-08-17T15:14:23.266Z,94339.75
2022-08-17T15:16:27.140Z,94337.22
2022-08-17T15:18:30.358Z,94332.97
2022-08-17T15:20:32.471Z,94333.03
2022-08-17T15:22:34.204Z,94342.47
2022-08-17T15:24:35.950Z,94343.34
2022-08-17T15:26:38.209Z,94338.56
2022-08-17T15:28:39.975Z,94346.97
2022-08-17T15:30:45.106Z,94337.91
2022-08-17T15:32:54.423Z,94334.59
2022-08-17T15:34:59.412Z,94337.91
2022-08-17T15:37:03.304Z,94341.88
2022-08-17T15:39:05.127Z,94345.47
2022-08-17T15:41:09.074Z,94339.97
2022-08-17T15:43:24.775Z,94332.28
2022-08-17T15:45:30.715Z,94329.13
2022-08-17T15:47:32.686Z,94331.38
2022-08-17T15:49:34.381Z,94334.41
2022-08-17T15:51:36.508Z,94332.56
2022-08-17T15:53:39.787Z,94333.66
2022-08-17T15:55:42.079Z,94327.97
2022-08-17T15:57:45.061Z,94339.50
2022-08-17T15:59:52.044Z,94330.97
2022-08-17T16:03:09.880Z,94344.09
2022-08-17T16:04:29.806Z,94333.59
2022-08-17T16:06:32.977Z,94338.81
2022-08-17T16:08:35.995Z,94338.59
2022-08-17T16:10:38.102Z,94339.50
2022-08-17T16:12:40.660Z,94340.09
2022-08-17T16:14:43.567Z,94338.69
2022-08-17T16:16:45.398Z,94344.09
2022-08-17T16:18:47.444Z,94342.19
2022-08-17T16:20:57.068Z,94345.09
2022-08-17T16:22:59.124Z,94342.38
2022-08-17T16:25:04.620Z,94344.44
2022-08-17T16:27:12.501Z,94344.56
2022-08-17T16:29:14.559Z,94337.75
2022-08-17T16:31:16.718Z,94345.44
2022-08-17T16:33:18.651Z,94341.13
2022-08-17T16:35:22.617Z,94340.84
2022-08-17T16:37:24.405Z,94347.28
2022-08-17T16:39:31.494Z,94352.34
2022-08-17T16:41:45.919Z,94353.69
2022-08-17T16:43:51.099Z,94349.03
2022-08-17T16:45:52.943Z,94355.63
2022-08-17T16:47:59.361Z,94355.16
2022-08-17T16:50:03.676Z,94364.09
2022-08-17T16:52:12.084Z,94361.19
2022-08-17T16:54:17.588Z,94356.22
2022-08-17T16:56:20.036Z,94355.50
2022-08-17T16:58:21.814Z,94364.94
2022-08-17T17:00:23.904Z,94367.44
2022-08-17T17:02:27.259Z,94366.63
2022-08-17T17:04:29.018Z,94367.34
2022-08-17T17:06:39.953Z,94364.84
2022-08-17T17:08:48.500Z,94365.22
2022-08-17T17:10:52.742Z,94375.38
2022-08-17T17:13:01.546Z,94377.38
2022-08-17T17:15:06.647Z,94376.63
2022-08-17T17:17:25.440Z,94382.09
2022-08-17T17:19:34.930Z,94378.66
2022-08-17T17:21:46.343Z,94384.97
2022-08-17T17:23:56.844Z,94387.97
2022-08-17T17:26:22.734Z,94379.19
2022-08-17T17:28:31.395Z,94391.59
2022-08-17T17:30:38.261Z,94391.91
2022-08-17T17:32:45.888Z,94394.38
2022-08-17T17:35:06.040Z,94403.28
2022-08-17T17:37:12.845Z,94396.88
2022-08-17T17:39:23.884Z,94400.41
2022-08-17T17:41:31.860Z,94403.16
2022-08-17T17:43:41.106Z,94406.91
2022-08-17T17:46:26.615Z,94413.66
2022-08-17T17:48:31.529Z,94415.56
2022-08-17T17:50:37.724Z,94407.78
2022-08-17T17:52:41.351Z,94414.25
2022-08-17T17:54:46.276Z,94414.78
2022-08-17T17:57:03.508Z,94413.19
2022-08-17T17:59:12.714Z,94414.28
2022-08-17T18:01:42.231Z,94422.63
2022-08-17T18:03:47.013Z,94428.53
2022-08-17T18:06:00.624Z,94421.53
2022-08-17T18:08:37.459Z,94427.97
2022-08-17T18:10:51.607Z,94445.72
2022-08-17T18:13:02.800Z,94440.34
2022-08-17T18:15:22.051Z,94440.34
2022-08-17T18:17:24.222Z,94441.97
2022-08-17T18:19:29.137Z,94445.44
2022-08-17T18:21:44.540Z,94437.63
2022-08-17T18:23:48.413Z,94439.28
2022-08-17T18:25:53.651Z,94437.91
2022-08-17T18:27:58.388Z,94450.03
2022-08-17T18:30:27.822Z,94454.56
2022-08-17T18:32:41.007Z,94460.25
2022-08-17T18:34:47.725Z,94457.00
2022-08-17T18:36:50.675Z,94459.97
2022-08-17T18:39:14.880Z,94461.31
2022-08-17T18:41:20.807Z,94461.00
2022-08-17T18:43:53.136Z,94466.13
2022-08-17T18:45:57.383Z,94463.16
2022-08-17T18:47:59.492Z,94478.50
2022-08-17T18:50:22.205Z,94475.53
2022-08-17T18:52:30.403Z,94473.63
2022-08-17T18:54:32.451Z,94475.53
2022-08-17T18:56:36.613Z,94478.72
2022-08-17T18:58:38.626Z,94482.22
2022-08-17T19:00:42.479Z,94473.34
2022-08-17T19:03:00.125Z,94479.53
2022-08-17T19:05:08.030Z,94485.94
2022-08-17T19:07:24.489Z,94484.59
2022-08-17T19:09:49.178Z,94490.47
2022-08-17T19:11:51.364Z,94493.44
2022-08-17T19:13:57.521Z,94485.63
2022-08-17T19:16:14.069Z,94487.50
2022-08-17T19:18:30.552Z,94489.91
2022-08-17T19:20:59.958Z,94484.53
2022-08-17T19:23:08.418Z,94491.25
2022-08-17T19:25:19.898Z,94488.81
2022-08-17T19:27:41.981Z,94496.31
2022-08-17T19:30:08.411Z,94491.75
2022-08-17T19:32:11.668Z,94487.72
2022-08-17T19:34:15.047Z,94495.53
2022-08-17T19:36:22.588Z,94493.09
2022-08-17T19:38:54.461Z,94494.13
2022-08-17T19:41:00.158Z,94494.69
2022-08-17T19:43:28.978Z,94493.03
2022-08-17T19:45:49.809Z,94500.59
2022-08-17T19:48:10.109Z,94492.53
2022-08-17T19:50:38.533Z,94496.53
2022-08-17T19:52:43.255Z,94495.97
2022-08-17T19:54:55.732Z,94497.06
2022-08-17T19:57:18.062Z,94494.63
2022-08-17T19:59:26.800Z,94505.09
2022-08-17T20:02:01.083Z,94499.75
2022-08-17T20:04:32.375Z,94495.16
2022-08-17T20:06:38.010Z,94498.41
2022-08-17T20:08:54.381Z,94501.34
2022-08-17T20:11:08.852Z,94500.25
2022-08-17T20:13:18.818Z,94497.00
2022-08-17T20:15:40.143Z,94495.41
2022-08-17T20:17:45.261Z,94497.28
2022-08-17T20:20:02.012Z,94496.50
2022-08-17T20:22:06.637Z,94497.81
2022-08-17T20:24:31.670Z,94498.09
2022-08-17T20:27:01.203Z,94502.59
2022-08-17T20:29:14.994Z,94501.00
2022-08-17T20:31:35.299Z,94500.19
2022-08-17T20:33:38.026Z,94501.50
2022-08-17T20:35:40.848Z,94502.53
2022-08-17T20:37:54.456Z,94503.28
2022-08-17T20:39:56.324Z,94504.38
2022-08-17T20:42:12.835Z,94507.81
2022-08-17T20:44:33.143Z,94509.16
2022-08-17T20:46:38.454Z,94507.00
2022-08-17T20:48:45.190Z,94508.03
2022-08-17T20:50:51.907Z,94498.13
2022-08-17T20:53:13.528Z,94506.69
2022-08-17T20:55:52.009Z,94507.47
2022-08-17T20:57:54.900Z,94517.66
2022-08-17T21:00:18.422Z,94512.28
2022-08-17T21:02:22.132Z,94509.59
2022-08-17T21:04:47.651Z,94509.59
2022-08-17T21:07:23.384Z,94512.53
2022-08-17T21:09:30.036Z,94506.38
2022-08-17T21:11:57.009Z,94504.47
2022-08-17T21:13:58.237Z,94505.00
2022-08-17T21:16:07.661Z,94503.38
2022-08-17T21:18:39.107Z,94503.66
2022-08-17T21:20:47.193Z,94507.38
2022-08-17T21:23:01.606Z,94502.03
2022-08-17T21:25:25.414Z,94504.97
2022-08-17T21:27:46.619Z,94513.28
2022-08-17T21:30:06.426Z,94514.84
2022-08-17T21:32:09.644Z,94514.78
2022-08-17T21:34:15.212Z,94517.66
2022-08-17T21:36:24.076Z,94517.13
2022-08-17T21:38:53.383Z,94516.06
2022-08-17T21:40:58.915Z,94517.63
2022-08-17T21:43:24.335Z,94524.00
2022-08-17T21:45:31.935Z,94528.19
2022-08-17T21:47:34.956Z,94527.31
2022-08-17T21:49:38.057Z,94526.22
2022-08-17T21:51:45.926Z,94528.34
2022-08-17T21:53:54.061Z,94532.34
2022-08-17T21:55:56.332Z,94539.03
2022-08-17T21:58:14.586Z,94528.78
2022-08-17T22:00:25.290Z,94530.34
2022-08-17T22:02:37.405Z,94534.09
2022-08-17T22:04:41.586Z,94539.47
2022-08-17T22:06:56.737Z,94529.78
2022-08-17T22:09:07.392Z,94528.44
2022-08-17T22:11:09.183Z,94538.09
2022-08-17T22:13:20.710Z,94530.31
2022-08-17T22:15:23.725Z,94527.06
2022-08-17T22:17:37.092Z,94527.38
2022-08-17T22:19:39.288Z,94525.75
2022-08-17T22:21:41.070Z,94527.06
2022-08-17T22:24:03.316Z,94515.81
2022-08-17T22:26:09.608Z,94521.97
2022-08-17T22:28:38.399Z,94522.78
2022-08-17T22:30:41.967Z,94523.78
2022-08-17T22:32:46.191Z,94518.13
2022-08-17T22:35:26.145Z,94520.25
2022-08-17T22:37:29.075Z,94519.91
2022-08-17T22:39:40.474Z,94512.16
2022-08-17T22:41:52.151Z,94518.81
2022-08-17T22:43:55.144Z,94514.22
2022-08-17T22:45:59.363Z,94514.22
2022-08-17T22:48:02.212Z,94528.34
2022-08-17T22:50:13.587Z,94525.44
2022-08-17T22:52:15.213Z,94508.81
2022-08-17T22:54:37.740Z,94520.47
2022-08-17T22:57:12.135Z,94515.38
2022-08-17T22:59:33.733Z,94515.94
2022-08-17T23:01:35.625Z,94519.13
2022-08-17T23:03:53.430Z,94515.84
2022-08-17T23:06:08.192Z,94513.72
2022-08-17T23:08:11.710Z,94517.19
2022-08-17T23:10:13.615Z,94514.75
2022-08-17T23:12:22.386Z,94508.03
2022-08-17T23:14:31.539Z,94515.84
2022-08-17T23:16:33.472Z,94513.63
2022-08-17T23:18:36.023Z,94511.50
2022-08-17T23:20:39.694Z,94505.69
2022-08-17T23:22:51.095Z,94504.56
2022-08-17T23:24:54.517Z,94499.44
2022-08-17T23:26:57.535Z,94496.78
2022-08-17T23:29:02.462Z,94503.16
2022-08-17T23:31:07.970Z,94496.22
2022-08-17T23:33:21.709Z,94504.25
2022-08-17T23:35:39.904Z,94498.69
2022-08-17T23:37:42.883Z,94502.69
2022-08-17T23:39:45.536Z,94510.41
2022-08-17T23:41:47.643Z,94512.03
2022-08-17T23:43:51.850Z,94509.03
2022-08-17T23:45:59.644Z,94508.16
2022-08-17T23:48:02.435Z,94504.06
2022-08-17T23:50:05.577Z,94501.84
2022-08-17T23:52:10.053Z,94509.84
2022-08-17T23:54:16.232Z,94503.69
2022-08-17T23:56:24.039Z,94505.78
2022-08-17T23:58:26.234Z,94496.13
